createdAt,value
2016-03-27T00:00:19.342Z,8.63
2016-03-27T00:01:19.488Z,8.66
2016-03-27T00:02:19.366Z,8.67
2016-03-27T00:03:19.385Z,8.63
2016-03-27T00:04:19.403Z,8.67
2016-03-27T00:05:19.436Z,8.66
2016-03-27T00:06:19.439Z,8.63
2016-03-27T00:07:19.474Z,8.56
2016-03-27T00:08:19.477Z,8.61
2016-03-27T00:09:19.479Z,8.64
2016-03-27T00:10:19.497Z,8.61
2016-03-27T00:11:19.516Z,8.6
2016-03-27T00:12:19.534Z,8.6
2016-03-27T00:13:19.552Z,8.58
2016-03-27T00:14:19.570Z,8.52
2016-03-27T00:15:19.588Z,8.55
2016-03-27T00:16:19.512Z,8.53
2016-03-27T00:17:19.604Z,8.58
2016-03-27T00:18:19.623Z,8.56
2016-03-27T00:19:19.611Z,8.53
2016-03-27T00:20:19.614Z,8.58
2016-03-27T00:21:19.633Z,8.55
2016-03-27T00:22:19.624Z,8.61
2016-03-27T00:23:19.637Z,8.66
2016-03-27T00:24:19.650Z,8.63
2016-03-27T00:25:19.663Z,8.61
2016-03-27T00:26:19.660Z,8.63
2016-03-27T00:27:19.675Z,8.58
2016-03-27T00:28:19.690Z,8.64
2016-03-27T00:29:19.707Z,8.63
2016-03-27T00:30:19.723Z,8.6
2016-03-27T00:31:19.895Z,8.63
2016-03-27T00:32:19.755Z,8.6
2016-03-27T00:33:19.757Z,8.67
2016-03-27T00:34:19.790Z,8.71
2016-03-27T00:35:19.808Z,8.58
2016-03-27T00:36:19.840Z,8.61
2016-03-27T00:37:19.843Z,8.67
2016-03-27T00:38:19.862Z,8.63
2016-03-27T00:39:19.865Z,8.56
2016-03-27T00:40:19.929Z,8.61
2016-03-27T00:41:19.916Z,8.58
2016-03-27T00:42:19.903Z,8.55
2016-03-27T00:43:19.954Z,8.58
2016-03-27T00:44:19.956Z,8.6
2016-03-27T00:45:19.958Z,8.64
2016-03-27T00:46:20.398Z,8.6
2016-03-27T00:47:19.995Z,8.67
2016-03-27T00:48:20.014Z,8.67
2016-03-27T00:49:20.031Z,8.66
2016-03-27T00:50:20.065Z,8.74
2016-03-27T00:51:20.084Z,8.76
2016-03-27T00:52:20.103Z,8.7
2016-03-27T00:53:20.105Z,8.7
2016-03-27T00:54:20.138Z,8.67
2016-03-27T00:55:20.142Z,8.66
2016-03-27T00:56:20.175Z,8.71
2016-03-27T00:57:20.178Z,8.69
2016-03-27T00:58:20.181Z,8.69
2016-03-27T00:59:20.199Z,8.7
2016-03-27T01:00:20.217Z,8.71
2016-03-27T01:01:20.111Z,8.79
2016-03-27T01:02:20.254Z,8.76
2016-03-27T01:03:20.288Z,8.78
2016-03-27T01:04:20.291Z,8.78
2016-03-27T01:05:20.309Z,8.84
2016-03-27T01:06:20.328Z,8.87
2016-03-27T01:07:20.346Z,8.76
2016-03-27T01:08:20.367Z,8.78
2016-03-27T01:09:20.386Z,8.88
2016-03-27T01:10:20.389Z,8.85
2016-03-27T01:11:20.422Z,8.89
2016-03-27T01:12:20.426Z,8.94
2016-03-27T01:13:20.444Z,8.94
2016-03-27T01:14:20.461Z,8.88
2016-03-27T01:15:20.481Z,8.73
2016-03-27T01:16:20.499Z,8.89
2016-03-27T01:17:20.516Z,8.84
2016-03-27T01:18:20.536Z,8.87
2016-03-27T01:19:20.554Z,8.88
2016-03-27T01:20:20.572Z,8.89
2016-03-27T01:21:20.606Z,8.76
2016-03-27T01:22:20.624Z,8.73
2016-03-27T01:23:20.627Z,8.82
2016-03-27T01:24:20.677Z,8.76
2016-03-27T01:25:20.632Z,8.73
2016-03-27T01:26:20.665Z,8.64
2016-03-27T01:27:20.669Z,8.69
2016-03-27T01:28:20.703Z,8.66
2016-03-27T01:29:20.721Z,8.6
2016-03-27T01:30:20.709Z,8.63
2016-03-27T01:31:20.757Z,8.58
2016-03-27T01:32:20.760Z,8.63
2016-03-27T01:33:20.029Z,8.52
2016-03-27T01:34:20.797Z,8.7
2016-03-27T01:35:20.815Z,8.66
2016-03-27T01:36:20.850Z,8.61
2016-03-27T01:37:20.867Z,8.46
2016-03-27T01:38:20.870Z,8.51
2016-03-27T01:39:20.889Z,8.55
2016-03-27T01:40:20.907Z,8.48
2016-03-27T01:41:20.910Z,8.48
2016-03-27T01:42:20.928Z,8.48
2016-03-27T01:43:20.946Z,8.45
2016-03-27T01:44:20.964Z,8.49
2016-03-27T01:45:20.999Z,8.44
2016-03-27T01:46:21.002Z,8.49
2016-03-27T01:47:21.019Z,8.51
2016-03-27T01:48:21.038Z,8.3
2016-03-27T01:49:21.056Z,8.42
2016-03-27T01:50:21.091Z,8.42
2016-03-27T01:51:21.093Z,8.37
2016-03-27T01:52:21.143Z,8.3
2016-03-27T01:53:21.130Z,8.31
2016-03-27T01:54:21.132Z,8.31
2016-03-27T01:55:21.135Z,8.38
2016-03-27T01:56:21.169Z,8.36
2016-03-27T01:57:21.187Z,8.3
2016-03-27T01:58:21.205Z,8.28
2016-03-27T01:59:21.224Z,8.31
2016-03-27T02:00:21.226Z,8.37
2016-03-27T02:01:21.260Z,8.34
2016-03-27T02:02:21.279Z,8.36
2016-03-27T02:03:21.312Z,8.27
2016-03-27T02:04:21.316Z,8.28
2016-03-27T02:05:21.334Z,8.33
2016-03-27T02:06:21.337Z,8.34
2016-03-27T02:07:21.240Z,8.31
2016-03-27T02:08:21.381Z,8.28
2016-03-27T02:09:21.430Z,8.27
2016-03-27T02:10:23.053Z,8.18
2016-03-27T02:11:21.415Z,8.2
2016-03-27T02:12:21.448Z,8.18
2016-03-27T02:13:21.452Z,8.12
2016-03-27T02:14:21.470Z,8.15
2016-03-27T02:15:21.488Z,8.15
2016-03-27T02:16:21.522Z,8.16
2016-03-27T02:17:21.541Z,8.16
2016-03-27T02:18:21.528Z,8.19
2016-03-27T02:19:21.547Z,8.13
2016-03-27T02:20:21.580Z,8.16
2016-03-27T02:21:21.598Z,8.15
2016-03-27T02:22:21.601Z,8.12
2016-03-27T02:23:21.619Z,8.16
2016-03-27T02:24:21.621Z,8.24
2016-03-27T02:25:21.671Z,8.26
2016-03-27T02:26:21.690Z,8.26
2016-03-27T02:27:21.693Z,8.31
2016-03-27T02:28:21.711Z,8.3
2016-03-27T02:29:21.713Z,8.41
2016-03-27T02:30:21.747Z,8.37
2016-03-27T02:31:21.750Z,8.49
2016-03-27T02:32:21.768Z,8.49
2016-03-27T02:33:21.802Z,8.44
2016-03-27T02:34:21.820Z,8.48
2016-03-27T02:35:21.824Z,8.58
2016-03-27T02:36:21.842Z,8.58
2016-03-27T02:37:21.860Z,8.58
2016-03-27T02:38:21.879Z,8.52
2016-03-27T02:39:21.896Z,8.55
2016-03-27T02:40:21.915Z,8.67
2016-03-27T02:41:21.918Z,8.52
2016-03-27T02:42:21.951Z,8.58
2016-03-27T02:43:21.970Z,8.6
2016-03-27T02:44:21.988Z,8.66
2016-03-27T02:45:21.975Z,8.63
2016-03-27T02:46:21.994Z,8.64
2016-03-27T02:47:22.028Z,8.64
2016-03-27T02:48:22.061Z,8.63
2016-03-27T02:49:22.064Z,8.61
2016-03-27T02:50:22.083Z,8.63
2016-03-27T02:51:21.350Z,8.64
2016-03-27T02:52:22.119Z,8.74
2016-03-27T02:53:22.138Z,8.66
2016-03-27T02:54:22.140Z,8.69
2016-03-27T02:55:22.158Z,8.61
2016-03-27T02:56:22.161Z,8.64
2016-03-27T02:57:22.179Z,8.74
2016-03-27T02:58:22.214Z,8.74
2016-03-27T02:59:22.216Z,8.73
2016-03-27T03:00:22.234Z,8.76
2016-03-27T03:01:22.253Z,8.87
2016-03-27T03:02:22.287Z,8.81
2016-03-27T03:03:22.290Z,8.74
2016-03-27T03:04:22.324Z,8.81
2016-03-27T03:05:22.326Z,8.73
2016-03-27T03:06:22.344Z,8.85
2016-03-27T03:07:22.347Z,8.85
2016-03-27T03:08:22.381Z,8.84
2016-03-27T03:09:22.383Z,8.71
2016-03-27T03:10:22.418Z,8.76
2016-03-27T03:11:22.420Z,8.85
2016-03-27T03:12:22.454Z,8.71
2016-03-27T03:13:22.457Z,8.88
2016-03-27T03:14:22.475Z,8.7
2016-03-27T03:15:22.509Z,8.82
2016-03-27T03:16:22.543Z,8.76
2016-03-27T03:17:22.530Z,8.85
2016-03-27T03:18:22.564Z,8.78
2016-03-27T03:19:22.567Z,8.82
2016-03-27T03:20:22.585Z,8.87
2016-03-27T03:21:22.604Z,8.81
2016-03-27T03:22:22.622Z,8.82
2016-03-27T03:23:22.624Z,8.7
2016-03-27T03:24:22.659Z,8.79
2016-03-27T03:25:22.661Z,8.95
2016-03-27T03:26:22.680Z,8.92
2016-03-27T03:27:22.713Z,8.85
2016-03-27T03:28:22.700Z,8.79
2016-03-27T03:29:22.718Z,8.73
2016-03-27T03:30:22.753Z,8.88
2016-03-27T03:31:22.771Z,8.74
2016-03-27T03:32:22.788Z,8.79
2016-03-27T03:33:22.792Z,8.78
2016-03-27T03:34:22.810Z,8.87
2016-03-27T03:35:22.828Z,8.78
2016-03-27T03:36:22.863Z,8.81
2016-03-27T03:37:22.865Z,8.74
2016-03-27T03:38:22.884Z,8.79
2016-03-27T03:39:22.902Z,8.84
2016-03-27T03:40:22.904Z,8.78
2016-03-27T03:41:22.923Z,8.73
2016-03-27T03:42:22.957Z,8.67
2016-03-27T03:43:22.975Z,8.78
2016-03-27T03:44:22.993Z,8.74
2016-03-27T03:45:22.996Z,8.64
2016-03-27T03:46:23.030Z,8.64
2016-03-27T03:47:23.064Z,8.67
2016-03-27T03:48:23.051Z,8.61
2016-03-27T03:49:23.069Z,8.63
2016-03-27T03:50:23.087Z,8.58
2016-03-27T03:51:23.090Z,8.66
2016-03-27T03:52:23.124Z,8.67
2016-03-27T03:53:23.142Z,8.58
2016-03-27T03:54:23.145Z,8.56
2016-03-27T03:55:23.179Z,8.58
2016-03-27T03:56:23.198Z,8.63
2016-03-27T03:57:23.216Z,8.58
2016-03-27T03:58:23.234Z,8.66
2016-03-27T03:59:23.236Z,8.56
2016-03-27T04:00:23.239Z,8.66
2016-03-27T04:01:23.274Z,8.52
2016-03-27T04:02:23.323Z,8.55
2016-03-27T04:03:23.310Z,8.51
2016-03-27T04:04:23.329Z,8.55
2016-03-27T04:05:23.332Z,8.46
2016-03-27T04:06:23.349Z,8.49
2016-03-27T04:07:23.385Z,8.49
2016-03-27T04:08:23.387Z,8.49
2016-03-27T04:09:23.390Z,8.46
2016-03-27T04:10:23.425Z,8.51
2016-03-27T04:11:23.427Z,8.51
2016-03-27T04:12:23.461Z,8.49
2016-03-27T04:13:23.480Z,8.46
2016-03-27T04:14:23.483Z,8.51
2016-03-27T04:15:23.516Z,8.41
2016-03-27T04:16:23.534Z,8.41
2016-03-27T04:17:23.616Z,8.38
2016-03-27T04:18:23.556Z,8.52
2016-03-27T04:19:23.574Z,8.45
2016-03-27T04:20:23.591Z,8.46
2016-03-27T04:21:23.595Z,8.52
2016-03-27T04:22:23.613Z,8.46
2016-03-27T04:23:23.632Z,8.51
2016-03-27T04:24:23.650Z,8.49
2016-03-27T04:25:23.683Z,8.49
2016-03-27T04:26:23.702Z,8.46
2016-03-27T04:27:23.721Z,8.45
2016-03-27T04:28:23.723Z,8.52
2016-03-27T04:29:23.740Z,8.46
2016-03-27T04:30:23.744Z,8.48
2016-03-27T04:31:23.778Z,8.45
2016-03-27T04:32:23.843Z,8.49
2016-03-27T04:33:23.643Z,8.56
2016-03-27T04:34:23.817Z,8.58
2016-03-27T04:35:23.835Z,8.58
2016-03-27T04:36:23.854Z,8.48
2016-03-27T04:37:23.873Z,8.49
2016-03-27T04:38:23.890Z,8.49
2016-03-27T04:39:23.909Z,8.52
2016-03-27T04:40:23.927Z,8.61
2016-03-27T04:41:23.946Z,8.56
2016-03-27T04:42:23.964Z,8.58
2016-03-27T04:43:23.966Z,8.58
2016-03-27T04:44:23.984Z,8.48
2016-03-27T04:45:24.003Z,8.48
2016-03-27T04:46:24.022Z,8.42
2016-03-27T04:47:24.071Z,8.44
2016-03-27T04:48:24.058Z,8.6
2016-03-27T04:49:24.061Z,8.51
2016-03-27T04:50:24.079Z,8.48
2016-03-27T04:51:24.097Z,8.58
2016-03-27T04:52:24.131Z,8.6
2016-03-27T04:53:24.133Z,8.56
2016-03-27T04:54:24.152Z,8.55
2016-03-27T04:55:24.171Z,8.67
2016-03-27T04:56:24.188Z,8.56
2016-03-27T04:57:24.223Z,8.58
2016-03-27T04:58:24.226Z,8.6
2016-03-27T04:59:24.243Z,8.49
2016-03-27T05:00:24.262Z,8.56
2016-03-27T05:01:24.280Z,8.56
2016-03-27T05:02:24.376Z,8.53
2016-03-27T05:03:24.301Z,8.58
2016-03-27T05:04:24.335Z,8.64
2016-03-27T05:05:24.337Z,8.66
2016-03-27T05:06:24.357Z,8.6
2016-03-27T05:07:24.375Z,8.66
2016-03-27T05:08:24.393Z,8.56
2016-03-27T05:09:24.412Z,8.64
2016-03-27T05:10:24.429Z,8.64
2016-03-27T05:11:24.448Z,8.58
2016-03-27T05:12:24.466Z,8.61
2016-03-27T05:13:24.469Z,8.66
2016-03-27T05:14:24.486Z,8.66
2016-03-27T05:15:24.506Z,8.78
2016-03-27T05:16:24.524Z,8.82
2016-03-27T05:17:24.620Z,8.78
2016-03-27T05:18:24.545Z,8.76
2016-03-27T05:19:24.563Z,8.82
2016-03-27T05:20:24.581Z,8.78
2016-03-27T05:21:24.600Z,8.73
2016-03-27T05:22:24.618Z,8.85
2016-03-27T05:23:24.636Z,8.85
2016-03-27T05:24:24.655Z,8.91
2016-03-27T05:25:24.673Z,8.89
2016-03-27T05:26:24.692Z,8.91
2016-03-27T05:27:24.710Z,9
2016-03-27T05:28:24.727Z,8.95
2016-03-27T05:29:24.747Z,8.91
2016-03-27T05:30:24.765Z,9.02
2016-03-27T05:31:24.767Z,8.94
2016-03-27T05:32:24.848Z,9.02
2016-03-27T05:33:24.820Z,8.99
2016-03-27T05:34:24.823Z,8.99
2016-03-27T05:35:24.841Z,9.04
2016-03-27T05:36:24.874Z,9.03
2016-03-27T05:37:24.876Z,9
2016-03-27T05:38:24.880Z,9.06
2016-03-27T05:39:24.914Z,9.08
2016-03-27T05:40:24.931Z,9.08
2016-03-27T05:41:24.951Z,9.08
2016-03-27T05:42:24.969Z,9.1
2016-03-27T05:43:24.987Z,9.19
2016-03-27T05:44:25.006Z,9.1
2016-03-27T05:45:25.008Z,9.22
2016-03-27T05:46:25.026Z,9.21
2016-03-27T05:47:25.169Z,9.26
2016-03-27T05:48:25.047Z,9.16
2016-03-27T05:49:25.081Z,9.13
2016-03-27T05:50:25.100Z,9.11
2016-03-27T05:51:25.118Z,9.23
2016-03-27T05:52:25.122Z,9.26
2016-03-27T05:53:25.155Z,9.14
2016-03-27T05:54:25.157Z,9.32
2016-03-27T05:55:25.191Z,9.16
2016-03-27T05:56:25.194Z,9.23
2016-03-27T05:57:25.227Z,9.22
2016-03-27T05:58:25.215Z,9.26
2016-03-27T05:59:25.280Z,9.25
2016-03-27T06:00:25.251Z,9.29
2016-03-27T06:01:25.286Z,9.26
2016-03-27T06:02:25.398Z,9.23
2016-03-27T06:03:25.321Z,9.39
2016-03-27T06:04:25.341Z,9.43
2016-03-27T06:05:25.343Z,9.43
2016-03-27T06:06:25.361Z,9.39
2016-03-27T06:07:25.380Z,9.4
2016-03-27T06:08:25.414Z,9.51
2016-03-27T06:09:25.432Z,9.51
2016-03-27T06:10:25.435Z,9.5
2016-03-27T06:11:25.468Z,9.54
2016-03-27T06:12:25.471Z,9.51
2016-03-27T06:13:25.490Z,9.56
2016-03-27T06:14:25.508Z,9.58
2016-03-27T06:15:25.525Z,9.65
2016-03-27T06:16:25.529Z,9.68
2016-03-27T06:17:25.547Z,9.79
2016-03-27T06:18:25.581Z,9.68
2016-03-27T06:19:25.600Z,9.76
2016-03-27T06:20:25.617Z,9.86
2016-03-27T06:21:25.620Z,9.89
2016-03-27T06:22:25.639Z,10.04
2016-03-27T06:23:25.672Z,10.01
2016-03-27T06:24:25.675Z,10.12
2016-03-27T06:25:25.694Z,10.07
2016-03-27T06:26:25.555Z,10.05
2016-03-27T06:27:25.731Z,10.01
2016-03-27T06:28:25.764Z,10.13
2016-03-27T06:29:25.782Z,10.13
2016-03-27T06:30:25.802Z,10.15
2016-03-27T06:31:25.804Z,10.04
2016-03-27T06:32:25.821Z,10.16
2016-03-27T06:33:25.841Z,10.01
2016-03-27T06:34:25.859Z,10.09
2016-03-27T06:35:25.877Z,10.05
2016-03-27T06:36:25.879Z,10.1
2016-03-27T06:37:25.913Z,10.16
2016-03-27T06:38:25.916Z,10.12
2016-03-27T06:39:25.184Z,10.04
2016-03-27T06:40:25.953Z,10.16
2016-03-27T06:41:25.987Z,10.12
2016-03-27T06:42:26.005Z,10.12
2016-03-27T06:43:26.009Z,10.13
2016-03-27T06:44:26.104Z,10.19
2016-03-27T06:45:26.123Z,10.16
2016-03-27T06:46:26.156Z,10.15
2016-03-27T06:47:26.081Z,10.26
2016-03-27T06:48:26.100Z,10.25
2016-03-27T06:49:26.118Z,10.31
2016-03-27T06:50:26.136Z,10.23
2016-03-27T06:51:26.155Z,10.3
2016-03-27T06:52:26.172Z,10.26
2016-03-27T06:53:26.191Z,10.33
2016-03-27T06:54:26.208Z,10.35
2016-03-27T06:55:26.228Z,10.35
2016-03-27T06:56:26.261Z,10.33
2016-03-27T06:57:26.263Z,10.26
2016-03-27T06:58:26.283Z,10.34
2016-03-27T06:59:26.301Z,10.31
2016-03-27T07:00:26.319Z,10.35
2016-03-27T07:01:26.338Z,10.33
2016-03-27T07:02:26.340Z,10.26
2016-03-27T07:03:26.374Z,10.31
2016-03-27T07:04:26.377Z,10.28
2016-03-27T07:05:26.410Z,10.31
2016-03-27T07:06:26.413Z,10.33
2016-03-27T07:07:26.448Z,10.28
2016-03-27T07:08:26.466Z,10.3
2016-03-27T07:09:26.468Z,10.28
2016-03-27T07:10:26.501Z,10.22
2016-03-27T07:11:26.537Z,10.31
2016-03-27T07:12:26.539Z,10.3
2016-03-27T07:13:26.541Z,10.23
2016-03-27T07:14:26.576Z,10.19
2016-03-27T07:15:26.594Z,10.23
2016-03-27T07:16:26.612Z,10.17
2016-03-27T07:17:26.631Z,10.22
2016-03-27T07:18:26.648Z,10.13
2016-03-27T07:19:26.651Z,10.2
2016-03-27T07:20:26.686Z,10.13
2016-03-27T07:21:26.703Z,10.23
2016-03-27T07:22:26.738Z,10.04
2016-03-27T07:23:26.741Z,9.98
2016-03-27T07:24:26.759Z,10.09
2016-03-27T07:25:26.777Z,10.02
2016-03-27T07:26:26.795Z,9.94
2016-03-27T07:27:26.798Z,9.86
2016-03-27T07:28:26.817Z,9.86
2016-03-27T07:29:26.834Z,9.76
2016-03-27T07:30:26.853Z,9.77
2016-03-27T07:31:26.871Z,9.73
2016-03-27T07:32:26.874Z,9.69
2016-03-27T07:33:26.908Z,9.68
2016-03-27T07:34:26.926Z,9.64
2016-03-27T07:35:26.944Z,9.64
2016-03-27T07:36:26.963Z,9.51
2016-03-27T07:37:26.981Z,9.51
2016-03-27T07:38:27.015Z,9.55
2016-03-27T07:39:27.018Z,9.56
2016-03-27T07:40:27.051Z,9.55
2016-03-27T07:41:27.055Z,9.66
2016-03-27T07:42:27.073Z,9.61
2016-03-27T07:43:27.090Z,9.64
2016-03-27T07:44:27.110Z,9.66
2016-03-27T07:45:27.128Z,9.73
2016-03-27T07:46:27.145Z,9.74
2016-03-27T07:47:27.164Z,9.76
2016-03-27T07:48:27.183Z,9.89
2016-03-27T07:49:27.201Z,9.92
2016-03-27T07:50:27.219Z,10.01
2016-03-27T07:51:27.237Z,10.05
2016-03-27T07:52:27.115Z,10.07
2016-03-27T07:53:27.289Z,10.04
2016-03-27T07:54:27.292Z,10.02
2016-03-27T07:55:27.311Z,10.01
2016-03-27T07:56:27.313Z,10.01
2016-03-27T07:57:27.348Z,10.07
2016-03-27T07:58:27.350Z,9.99
2016-03-27T07:59:27.383Z,10.01
2016-03-27T08:00:27.403Z,9.99
2016-03-27T08:01:27.405Z,9.91
2016-03-27T08:02:27.438Z,9.84
2016-03-27T08:03:27.441Z,9.87
2016-03-27T08:04:27.476Z,9.87
2016-03-27T08:05:27.478Z,9.89
2016-03-27T08:06:27.497Z,9.74
2016-03-27T08:07:27.530Z,9.77
2016-03-27T08:08:27.548Z,9.84
2016-03-27T08:09:27.568Z,9.79
2016-03-27T08:10:27.570Z,9.79
2016-03-27T08:11:27.587Z,9.83
2016-03-27T08:12:27.607Z,9.74
2016-03-27T08:13:27.625Z,9.66
2016-03-27T08:14:27.643Z,9.74
2016-03-27T08:15:27.662Z,9.73
2016-03-27T08:16:27.664Z,9.68
2016-03-27T08:17:27.698Z,9.68
2016-03-27T08:18:27.717Z,9.68
2016-03-27T08:19:27.734Z,9.66
2016-03-27T08:20:27.737Z,9.59
2016-03-27T08:21:27.772Z,9.61
2016-03-27T08:22:27.775Z,9.54
2016-03-27T08:23:27.808Z,9.54
2016-03-27T08:24:27.811Z,9.47
2016-03-27T08:25:27.828Z,9.37
2016-03-27T08:26:27.847Z,9.43
2016-03-27T08:27:27.866Z,9.44
2016-03-27T08:28:27.883Z,9.48
2016-03-27T08:29:27.902Z,9.37
2016-03-27T08:30:27.921Z,9.39
2016-03-27T08:31:27.939Z,9.41
2016-03-27T08:32:27.957Z,9.43
2016-03-27T08:33:27.975Z,9.39
2016-03-27T08:34:28.010Z,9.41
2016-03-27T08:35:28.027Z,9.37
2016-03-27T08:36:28.046Z,9.4
2016-03-27T08:37:28.033Z,9.46
2016-03-27T08:38:28.067Z,9.5
2016-03-27T08:39:28.086Z,9.43
2016-03-27T08:40:28.088Z,9.36
2016-03-27T08:41:28.137Z,9.44
2016-03-27T08:42:28.124Z,9.44
2016-03-27T08:43:28.143Z,9.5
2016-03-27T08:44:28.161Z,9.46
2016-03-27T08:45:28.179Z,9.41
2016-03-27T08:46:28.198Z,9.46
2016-03-27T08:47:28.231Z,9.44
2016-03-27T08:48:28.235Z,9.47
2016-03-27T08:49:28.253Z,9.43
2016-03-27T08:50:28.317Z,9.39
2016-03-27T08:51:28.290Z,9.5
2016-03-27T08:52:28.323Z,9.43
2016-03-27T08:53:28.325Z,9.44
2016-03-27T08:54:28.361Z,9.48
2016-03-27T08:55:28.347Z,9.61
2016-03-27T08:56:28.397Z,9.58
2016-03-27T08:57:28.400Z,9.55
2016-03-27T08:58:28.402Z,9.61
2016-03-27T08:59:28.436Z,9.56
2016-03-27T09:00:28.454Z,9.58
2016-03-27T09:01:28.472Z,9.56
2016-03-27T09:02:28.475Z,9.54
2016-03-27T09:03:28.493Z,9.61
2016-03-27T09:04:28.513Z,9.58
2016-03-27T09:05:28.530Z,9.55
2016-03-27T09:06:28.564Z,9.62
2016-03-27T09:07:28.564Z,9.54
2016-03-27T09:08:28.583Z,9.58
2016-03-27T09:09:28.602Z,9.47
2016-03-27T09:10:28.604Z,9.5
2016-03-27T09:11:28.654Z,9.54
2016-03-27T09:12:28.641Z,9.54
2016-03-27T09:13:28.675Z,9.56
2016-03-27T09:14:28.677Z,9.58
2016-03-27T09:15:28.696Z,9.5
2016-03-27T09:16:28.730Z,9.48
2016-03-27T09:17:28.748Z,9.5
2016-03-27T09:18:28.766Z,9.47
2016-03-27T09:19:28.785Z,9.4
2016-03-27T09:20:28.818Z,9.41
2016-03-27T09:21:28.822Z,9.39
2016-03-27T09:22:28.840Z,9.37
2016-03-27T09:23:28.853Z,9.39
2016-03-27T09:24:28.860Z,9.36
2016-03-27T09:25:28.850Z,9.36
2016-03-27T09:26:28.872Z,9.36
2016-03-27T09:27:28.863Z,9.39
2016-03-27T09:28:28.873Z,9.34
2016-03-27T09:29:28.888Z,9.32
2016-03-27T09:30:28.745Z,9.26
2016-03-27T09:31:28.915Z,9.28
2016-03-27T09:32:28.929Z,9.29
2016-03-27T09:33:28.944Z,9.25
2016-03-27T09:34:28.961Z,9.28
2016-03-27T09:35:28.993Z,9.25
2016-03-27T09:36:28.995Z,9.22
2016-03-27T09:37:29.012Z,9.18
2016-03-27T09:38:29.029Z,9.21
2016-03-27T09:39:29.031Z,9.19
2016-03-27T09:40:29.064Z,9.22
2016-03-27T09:41:29.067Z,9.06
2016-03-27T09:42:29.100Z,9.14
2016-03-27T09:43:29.117Z,9.03
2016-03-27T09:44:29.120Z,9.1
2016-03-27T09:45:29.169Z,9.11
2016-03-27T09:46:29.157Z,9.06
2016-03-27T09:47:29.190Z,9.1
2016-03-27T09:48:29.192Z,9.08
2016-03-27T09:49:29.210Z,9
2016-03-27T09:50:29.213Z,8.97
2016-03-27T09:51:29.263Z,8.99
2016-03-27T09:52:29.265Z,8.99
2016-03-27T09:53:29.284Z,8.99
2016-03-27T09:54:29.302Z,8.99
2016-03-27T09:55:29.321Z,9.03
2016-03-27T09:56:29.339Z,9.02
2016-03-27T09:57:29.341Z,8.99
2016-03-27T09:58:29.392Z,8.97
2016-03-27T09:59:29.378Z,9
2016-03-27T10:00:29.411Z,8.95
2016-03-27T10:01:29.431Z,8.85
2016-03-27T10:02:29.433Z,8.91
2016-03-27T10:03:29.452Z,8.88
2016-03-27T10:04:29.470Z,8.89
2016-03-27T10:05:29.503Z,8.92
2016-03-27T10:06:29.506Z,8.99
2016-03-27T10:07:29.369Z,9.03
2016-03-27T10:08:29.543Z,9.03
2016-03-27T10:09:29.546Z,9.02
2016-03-27T10:10:29.596Z,9.02
2016-03-27T10:11:29.598Z,9.04
2016-03-27T10:12:29.601Z,9.06
2016-03-27T10:13:29.619Z,9.04
2016-03-27T10:14:28.887Z,9.18
2016-03-27T10:15:29.655Z,9.1
2016-03-27T10:16:29.674Z,9.08
2016-03-27T10:17:29.707Z,9.08
2016-03-27T10:18:29.710Z,9.03
2016-03-27T10:19:29.729Z,9.08
2016-03-27T10:20:29.731Z,9.11
2016-03-27T10:21:29.766Z,9.08
2016-03-27T10:22:29.784Z,9.08
2016-03-27T10:23:29.801Z,9.13
2016-03-27T10:24:29.805Z,9.11
2016-03-27T10:25:29.854Z,9.19
2016-03-27T10:26:29.841Z,9.13
2016-03-27T10:27:29.860Z,9.21
2016-03-27T10:28:29.894Z,9.23
2016-03-27T10:29:29.912Z,9.21
2016-03-27T10:30:29.930Z,9.19
2016-03-27T10:31:29.933Z,9.26
2016-03-27T10:32:29.950Z,9.25
2016-03-27T10:33:29.970Z,9.14
2016-03-27T10:34:29.988Z,9.25
2016-03-27T10:35:30.005Z,9.25
2016-03-27T10:36:30.009Z,9.29
2016-03-27T10:37:30.043Z,9.25
2016-03-27T10:38:30.061Z,9.32
2016-03-27T10:39:30.080Z,9.39
2016-03-27T10:40:29.941Z,9.4
2016-03-27T10:41:30.116Z,9.37
2016-03-27T10:42:30.119Z,9.46
2016-03-27T10:43:30.137Z,9.54
2016-03-27T10:44:30.171Z,9.54
2016-03-27T10:45:30.190Z,9.55
2016-03-27T10:46:30.193Z,9.5
2016-03-27T10:47:30.211Z,9.5
2016-03-27T10:48:30.229Z,9.58
2016-03-27T10:49:30.262Z,9.61
2016-03-27T10:50:30.265Z,9.69
2016-03-27T10:51:30.284Z,9.65
2016-03-27T10:52:30.301Z,9.66
2016-03-27T10:53:30.336Z,9.65
2016-03-27T10:54:30.323Z,9.56
2016-03-27T10:55:30.342Z,9.69
2016-03-27T10:56:30.375Z,9.8
2016-03-27T10:57:30.378Z,9.79
2016-03-27T10:58:30.396Z,9.84
2016-03-27T10:59:30.430Z,9.84
2016-03-27T11:00:30.448Z,10.01
2016-03-27T11:01:30.467Z,10.09
2016-03-27T11:02:30.500Z,10.07
2016-03-27T11:03:30.489Z,10.17
2016-03-27T11:04:30.522Z,10.3
2016-03-27T11:05:30.539Z,10.4
2016-03-27T11:06:30.559Z,10.42
2016-03-27T11:07:30.577Z,10.54
2016-03-27T11:08:30.579Z,10.64
2016-03-27T11:09:30.629Z,10.59
2016-03-27T11:10:30.632Z,10.61
2016-03-27T11:11:30.650Z,10.71
2016-03-27T11:12:30.652Z,10.79
2016-03-27T11:13:29.921Z,10.76
2016-03-27T11:14:30.705Z,10.82
2016-03-27T11:15:30.707Z,10.94
2016-03-27T11:16:30.741Z,10.97
2016-03-27T11:17:30.760Z,10.94
2016-03-27T11:18:30.762Z,10.99
2016-03-27T11:19:30.797Z,10.96
2016-03-27T11:20:30.815Z,11.05
2016-03-27T11:21:30.832Z,11.04
2016-03-27T11:22:30.852Z,11.07
2016-03-27T11:23:30.870Z,11.05
2016-03-27T11:24:30.887Z,11.14
2016-03-27T11:25:30.906Z,11.25
2016-03-27T11:26:30.909Z,11.32
2016-03-27T11:27:30.943Z,11.3
2016-03-27T11:28:30.961Z,11.33
2016-03-27T11:29:30.979Z,11.43
2016-03-27T11:30:30.998Z,11.5
2016-03-27T11:31:31.016Z,11.55
2016-03-27T11:32:31.050Z,11.57
2016-03-27T11:33:31.053Z,11.57
2016-03-27T11:34:31.134Z,11.63
2016-03-27T11:35:31.090Z,11.57
2016-03-27T11:36:31.139Z,11.45
2016-03-27T11:37:31.141Z,11.44
2016-03-27T11:38:31.144Z,11.4
2016-03-27T11:39:31.178Z,11.44
2016-03-27T11:40:31.181Z,11.4
2016-03-27T11:41:31.215Z,11.43
2016-03-27T11:42:31.233Z,11.36
2016-03-27T11:43:31.252Z,11.23
2016-03-27T11:44:31.269Z,11.19
2016-03-27T11:45:31.288Z,11.12
2016-03-27T11:46:31.307Z,11.12
2016-03-27T11:47:31.324Z,11.12
2016-03-27T11:48:31.343Z,10.99
2016-03-27T11:49:34.362Z,11.05
2016-03-27T11:50:31.380Z,10.93
2016-03-27T11:51:31.413Z,10.78
2016-03-27T11:52:31.416Z,10.78
2016-03-27T11:53:31.435Z,10.69
2016-03-27T11:54:31.453Z,10.64
2016-03-27T11:55:31.471Z,10.68
2016-03-27T11:56:31.474Z,10.63
2016-03-27T11:57:31.509Z,10.68
2016-03-27T11:58:31.542Z,10.72
2016-03-27T11:59:31.560Z,10.78
2016-03-27T12:00:31.563Z,10.78
2016-03-27T12:01:31.581Z,10.82
2016-03-27T12:02:31.599Z,10.97
2016-03-27T12:03:31.525Z,11.22
2016-03-27T12:04:31.652Z,11.36
2016-03-27T12:05:31.670Z,11.37
2016-03-27T12:06:31.673Z,11.57
2016-03-27T12:07:31.722Z,11.69
2016-03-27T12:08:31.709Z,11.57
2016-03-27T12:09:31.775Z,11.63
2016-03-27T12:10:31.762Z,11.73
2016-03-27T12:11:31.780Z,11.81
2016-03-27T12:12:31.814Z,11.91
2016-03-27T12:13:31.801Z,11.91
2016-03-27T12:14:31.835Z,12.03
2016-03-27T12:15:31.868Z,12.18
2016-03-27T12:16:31.872Z,12.18
2016-03-27T12:17:31.890Z,12.35
2016-03-27T12:18:31.940Z,12.43
2016-03-27T12:19:31.942Z,12.43
2016-03-27T12:20:31.961Z,12.54
2016-03-27T12:21:31.994Z,12.6
2016-03-27T12:22:31.996Z,12.58
2016-03-27T12:23:32.016Z,12.72
2016-03-27T12:24:32.034Z,12.8
2016-03-27T12:25:32.067Z,12.8
2016-03-27T12:26:32.070Z,12.68
2016-03-27T12:27:32.089Z,12.61
2016-03-27T12:28:32.123Z,12.62
2016-03-27T12:29:32.172Z,12.6
2016-03-27T12:30:32.143Z,12.68
2016-03-27T12:31:32.193Z,12.67
2016-03-27T12:32:32.180Z,12.79
2016-03-27T12:33:32.214Z,12.79
2016-03-27T12:34:32.233Z,12.78
2016-03-27T12:35:32.251Z,12.8
2016-03-27T12:36:32.269Z,12.94
2016-03-27T12:37:32.131Z,13
2016-03-27T12:38:32.306Z,13.01
2016-03-27T12:39:32.355Z,13.01
2016-03-27T12:40:32.358Z,12.76
2016-03-27T12:41:32.376Z,12.78
2016-03-27T12:42:32.395Z,12.76
2016-03-27T12:43:32.428Z,12.76
2016-03-27T12:44:32.415Z,12.78
2016-03-27T12:45:32.465Z,12.83
2016-03-27T12:46:32.483Z,12.87
2016-03-27T12:47:32.486Z,13.04
2016-03-27T12:48:32.520Z,12.97
2016-03-27T12:49:32.539Z,13.01
2016-03-27T12:50:32.557Z,13.04
2016-03-27T12:51:32.590Z,13.15
2016-03-27T12:52:31.860Z,13.27
2016-03-27T12:53:32.612Z,13.2
2016-03-27T12:54:32.646Z,13.23
2016-03-27T12:55:32.664Z,13.16
2016-03-27T12:56:32.667Z,13.03
2016-03-27T12:57:32.732Z,13.09
2016-03-27T12:58:32.718Z,12.97
2016-03-27T12:59:32.737Z,13.04
2016-03-27T13:00:32.771Z,13.08
2016-03-27T13:01:32.773Z,12.98
2016-03-27T13:02:32.776Z,13
2016-03-27T13:03:32.842Z,12.93
2016-03-27T13:04:32.829Z,12.86
2016-03-27T13:05:32.847Z,12.97
2016-03-27T13:06:32.881Z,12.9
2016-03-27T13:07:32.899Z,12.87
2016-03-27T13:08:32.917Z,12.82
2016-03-27T13:09:32.936Z,12.79
2016-03-27T13:10:32.955Z,12.78
2016-03-27T13:11:32.816Z,12.85
2016-03-27T13:12:33.006Z,12.67
2016-03-27T13:13:33.025Z,12.67
2016-03-27T13:14:33.043Z,12.61